Time;durP1;ratioP1;P1;durP2;ratioP2;P2;SDS_P1;SDS_P2;PMS_P1;PMS_P2;Temp;Humidity;BMP_temperature;BMP_pressure;BME280_temperature;BME280_humidity;BME280_pressure;Samples;Min_cycle;Max_cycle;Signal;HPM_P1;HPM_P2
2021/03/03 00:01:06;;;;;;;42.78;22.75;;;;;;;;;;5071491;28;20024;-75
2021/03/03 00:03:32;;;;;;;34.78;18.73;;;;;;;;;;5071648;28;20056;-75
2021/03/03 00:05:58;;;;;;;37.20;19.88;;;;;;;;;;5073673;28;20111;-75
2021/03/03 00:08:24;;;;;;;42.58;21.67;;;;;;;;;;5074367;28;20024;-75
2021/03/03 00:10:50;;;;;;;39.05;20.98;;;;;;;;;;5074321;28;20024;-75
2021/03/03 00:13:16;;;;;;;41.53;21.83;;;;;;;;;;5075357;28;20091;-75
2021/03/03 00:15:42;;;;;;;38.80;21.90;;;;;;;;;;5075199;28;20526;-75
2021/03/03 00:18:08;;;;;;;33.00;19.67;;;;;;;;;;5073772;28;20047;-75
2021/03/03 00:20:34;;;;;;;34.88;19.33;;;;;;;;;;5073982;28;20056;-75
2021/03/03 00:23:00;;;;;;;37.55;19.63;;;;;;;;;;5075186;28;20460;-75
2021/03/03 00:25:27;;;;;;;39.33;21.90;;;;;;;;;;5075301;28;20017;-76
2021/03/03 00:27:53;;;;;;;34.28;19.48;;;;;;;;;;5074881;28;20473;-76
2021/03/03 00:30:19;;;;;;;38.85;20.33;;;;;;;;;;5073880;28;20052;-74
2021/03/03 00:32:45;;;;;;;35.75;19.83;;;;;;;;;;5073992;28;20062;-76
2021/03/03 00:35:11;;;;;;;36.35;20.65;;;;;;;;;;5075250;28;20051;-75
2021/03/03 00:37:37;;;;;;;39.20;18.98;;;;;;;;;;5073774;28;20017;-75
2021/03/03 00:40:07;;;;;;;37.25;19.80;;;;;;;;;;5074723;28;20021;-75
2021/03/03 00:42:33;;;;;;;36.10;19.90;;;;;;;;;;5073701;28;20402;-75
2021/03/03 00:44:59;;;;;;;44.42;21.92;;;;;;;;;;5074724;28;20021;-75
2021/03/03 00:47:25;;;;;;;36.85;20.67;;;;;;;;;;5073717;28;20376;-76
2021/03/03 00:49:51;;;;;;;36.08;19.20;;;;;;;;;;5074950;28;20017;-75
2021/03/03 00:52:17;;;;;;;33.05;19.10;;;;;;;;;;5074286;28;20044;-75
2021/03/03 00:54:44;;;;;;;39.60;19.77;;;;;;;;;;5073470;28;20020;-76
2021/03/03 00:57:10;;;;;;;34.47;18.98;;;;;;;;;;5072995;28;20027;-76
2021/03/03 00:59:36;;;;;;;37.70;19.58;;;;;;;;;;5073344;28;20031;-76
2021/03/03 01:02:02;;;;;;;36.42;18.88;;;;;;;;;;5073152;28;20017;-76
2021/03/03 01:04:28;;;;;;;34.92;18.35;;;;;;;;;;5074774;28;20017;-76
2021/03/03 01:06:54;;;;;;;40.80;20.48;;;;;;;;;;5073267;28;20365;-74
2021/03/03 01:09:20;;;;;;;41.28;21.48;;;;;;;;;;5073111;28;20024;-75
2021/03/03 01:11:46;;;;;;;34.13;18.20;;;;;;;;;;5074850;28;20019;-75
2021/03/03 01:14:12;;;;;;;44.03;19.48;;;;;;;;;;5074160;28;20020;-75
2021/03/03 01:16:39;;;;;;;34.72;18.63;;;;;;;;;;5071901;28;20023;-75
2021/03/03 01:19:05;;;;;;;37.83;19.83;;;;;;;;;;5074272;28;20023;-74
2021/03/03 01:21:31;;;;;;;32.90;19.17;;;;;;;;;;5073050;28;20031;-75
2021/03/03 01:23:57;;;;;;;43.08;20.08;;;;;;;;;;5074039;28;20019;-75
2021/03/03 01:26:23;;;;;;;34.33;19.08;;;;;;;;;;5072951;28;20024;-75
2021/03/03 01:28:49;;;;;;;38.60;21.33;;;;;;;;;;5072871;28;20021;-75
2021/03/03 01:31:15;;;;;;;32.42;18.80;;;;;;;;;;5074000;28;20024;-75
2021/03/03 01:33:41;;;;;;;34.17;20.10;;;;;;;;;;5074163;28;20032;-75
2021/03/03 01:36:07;;;;;;;37.80;19.20;;;;;;;;;;5072488;28;20017;-75
2021/03/03 01:38:33;;;;;;;35.47;18.02;;;;;;;;;;5073980;28;20020;-75
2021/03/03 01:40:59;;;;;;;35.85;19.70;;;;;;;;;;5072316;28;20020;-75
2021/03/03 01:43:25;;;;;;;35.97;20.73;;;;;;;;;;5072543;28;20491;-75
2021/03/03 01:45:51;;;;;;;34.30;17.92;;;;;;;;;;5072494;28;20048;-75
2021/03/03 01:48:18;;;;;;;40.40;21.55;;;;;;;;;;5072323;28;20280;-75
2021/03/03 01:50:44;;;;;;;41.17;20.10;;;;;;;;;;5073640;28;20147;-74
2021/03/03 01:53:10;;;;;;;41.47;21.27;;;;;;;;;;5072196;28;20020;-75
2021/03/03 01:55:36;;;;;;;36.60;19.83;;;;;;;;;;5072277;28;20021;-75
2021/03/03 01:58:03;;;;;;;37.53;19.92;;;;;;;;;;5073419;28;20012;-75
2021/03/03 02:00:29;;;;;;;42.08;21.25;;;;;;;;;;5073490;28;20024;-75
2021/03/03 02:02:55;;;;;;;37.50;18.75;;;;;;;;;;5073395;28;20028;-75
2021/03/03 02:05:21;;;;;;;37.60;20.00;;;;;;;;;;5073285;28;20021;-76
2021/03/03 02:07:47;;;;;;;38.88;20.55;;;;;;;;;;5072085;28;20028;-75
2021/03/03 02:10:32;;;;;;;40.40;20.20;;;;;;;;;;5072801;28;20024;-76
2021/03/03 02:13:08;;;;;;;37.22;19.85;;;;;;;;;;5073280;28;20066;-75
2021/03/03 02:15:36;;;;;;;38.42;19.90;;;;;;;;;;5073272;28;20020;-75
2021/03/03 02:18:03;;;;;;;38.47;19.90;;;;;;;;;;5072783;28;20070;-75
2021/03/03 02:20:32;;;;;;;33.80;20.05;;;;;;;;;;5073051;28;20070;-75
2021/03/03 02:23:17;;;;;;;40.53;20.02;;;;;;;;;;5071723;28;20020;-75
2021/03/03 02:25:44;;;;;;;40.03;21.38;;;;;;;;;;5071728;28;20020;-75
2021/03/03 02:28:11;;;;;;;36.00;19.75;;;;;;;;;;5072370;28;20075;-76
2021/03/03 02:30:39;;;;;;;38.60;19.67;;;;;;;;;;5071610;28;20029;-75
2021/03/03 02:33:07;;;;;;;42.38;22.58;;;;;;;;;;5072435;28;20022;-76
2021/03/03 02:35:33;;;;;;;38.92;20.20;;;;;;;;;;5072837;28;20065;-75
2021/03/03 02:37:59;;;;;;;41.47;19.77;;;;;;;;;;5071450;28;20021;-76
2021/03/03 02:40:26;;;;;;;41.55;20.40;;;;;;;;;;5072392;28;20024;-75
2021/03/03 02:42:54;;;;;;;39.42;20.63;;;;;;;;;;5072766;28;20103;-76
2021/03/03 02:45:21;;;;;;;51.80;22.42;;;;;;;;;;5072407;28;20016;-75
2021/03/03 02:47:47;;;;;;;37.75;20.40;;;;;;;;;;5071271;28;20453;-75
2021/03/03 02:50:14;;;;;;;41.15;22.65;;;;;;;;;;5072392;28;20103;-76
2021/03/03 02:52:50;;;;;;;39.83;20.40;;;;;;;;;;5072544;28;20036;-75
2021/03/03 02:55:16;;;;;;;38.45;21.25;;;;;;;;;;5072299;28;20077;-76
2021/03/03 02:57:42;;;;;;;35.13;21.08;;;;;;;;;;5071180;28;20198;-76
2021/03/03 03:00:10;;;;;;;37.03;20.08;;;;;;;;;;5070771;28;20024;-76
2021/03/03 03:02:38;;;;;;;41.67;21.02;;;;;;;;;;5071077;28;20020;-76
2021/03/03 03:05:05;;;;;;;35.95;19.95;;;;;;;;;;5071836;28;20353;-76
2021/03/03 03:07:31;;;;;;;37.80;21.15;;;;;;;;;;5071031;28;20369;-76
2021/03/03 03:09:58;;;;;;;38.35;21.75;;;;;;;;;;5070730;28;20034;-76
2021/03/03 03:12:24;;;;;;;42.75;20.42;;;;;;;;;;5070730;28;20017;-76
2021/03/03 03:14:51;;;;;;;38.17;21.58;;;;;;;;;;5072291;28;20020;-75
2021/03/03 03:17:18;;;;;;;39.45;21.10;;;;;;;;;;5070615;28;20013;-76
2021/03/03 03:19:46;;;;;;;44.10;22.67;;;;;;;;;;5070812;28;20020;-76
2021/03/03 03:22:14;;;;;;;36.75;20.48;;;;;;;;;;5070610;28;20120;-75
2021/03/03 03:24:42;;;;;;;38.60;20.65;;;;;;;;;;5071858;28;20095;-75
2021/03/03 03:27:09;;;;;;;40.33;22.02;;;;;;;;;;5072216;28;20051;-75
2021/03/03 03:29:38;;;;;;;38.08;21.25;;;;;;;;;;5072132;28;20040;-75
2021/03/03 03:32:04;;;;;;;37.13;19.98;;;;;;;;;;5072161;28;20025;-74
2021/03/03 03:34:30;;;;;;;43.47;21.65;;;;;;;;;;5070506;28;20028;-75
2021/03/03 03:36:56;;;;;;;38.97;20.70;;;;;;;;;;5070716;28;20392;-75
2021/03/03 03:39:22;;;;;;;37.55;20.80;;;;;;;;;;5070375;28;20028;-75
2021/03/03 03:41:49;;;;;;;39.03;20.77;;;;;;;;;;5074377;28;20091;-75
2021/03/03 03:44:15;;;;;;;38.53;22.20;;;;;;;;;;5075887;28;20209;-75
2021/03/03 03:46:42;;;;;;;33.67;19.48;;;;;;;;;;5075832;28;20017;-75
2021/03/03 03:49:09;;;;;;;40.50;22.55;;;;;;;;;;5075525;28;20024;-75
2021/03/03 03:51:35;;;;;;;39.80;20.63;;;;;;;;;;5076174;28;20236;-75
2021/03/03 03:54:01;;;;;;;42.33;20.60;;;;;;;;;;5074697;28;20402;-75
2021/03/03 03:56:27;;;;;;;38.78;21.73;;;;;;;;;;5074386;28;20020;-75
2021/03/03 03:58:53;;;;;;;39.88;21.75;;;;;;;;;;5075921;28;20013;-75
2021/03/03 04:01:19;;;;;;;35.78;20.95;;;;;;;;;;5074151;28;20033;-75
2021/03/03 04:03:45;;;;;;;45.75;22.33;;;;;;;;;;5075854;28;20078;-75
2021/03/03 04:06:11;;;;;;;41.50;22.67;;;;;;;;;;5074212;28;20050;-74
2021/03/03 04:08:37;;;;;;;44.28;21.40;;;;;;;;;;5074321;28;20027;-75
2021/03/03 04:11:03;;;;;;;38.92;22.17;;;;;;;;;;5075641;28;20021;-75
2021/03/03 04:13:29;;;;;;;39.47;22.13;;;;;;;;;;5075140;28;20372;-76
2021/03/03 04:15:55;;;;;;;42.17;20.52;;;;;;;;;;5074225;28;20388;-75
2021/03/03 04:18:21;;;;;;;38.90;21.77;;;;;;;;;;5075419;28;20485;-76
2021/03/03 04:20:47;;;;;;;44.08;20.58;;;;;;;;;;5074144;28;20028;-75
2021/03/03 04:23:13;;;;;;;42.25;21.42;;;;;;;;;;5073929;28;20369;-75
2021/03/03 04:25:40;;;;;;;43.17;20.50;;;;;;;;;;5074077;28;20023;-75
2021/03/03 04:28:06;;;;;;;45.63;22.33;;;;;;;;;;5075278;28;20016;-75
2021/03/03 04:30:33;;;;;;;39.97;21.30;;;;;;;;;;5075143;28;20021;-75
2021/03/03 04:32:59;;;;;;;39.00;19.83;;;;;;;;;;5073990;28;20013;-75
2021/03/03 04:35:25;;;;;;;43.03;21.65;;;;;;;;;;5073672;28;20140;-75
2021/03/03 04:37:51;;;;;;;45.63;20.45;;;;;;;;;;5073868;28;20021;-75
2021/03/03 04:40:17;;;;;;;41.45;23.58;;;;;;;;;;5074533;28;20460;-75
2021/03/03 04:42:43;;;;;;;38.67;21.33;;;;;;;;;;5074816;28;20059;-75
2021/03/03 04:45:10;;;;;;;43.92;21.70;;;;;;;;;;5073447;28;20028;-75
2021/03/03 04:47:36;;;;;;;41.13;20.92;;;;;;;;;;5074933;28;20021;-75
2021/03/03 04:50:03;;;;;;;39.42;21.20;;;;;;;;;;5074910;28;20020;-75
2021/03/03 04:52:29;;;;;;;37.28;20.95;;;;;;;;;;5074411;28;20425;-75
2021/03/03 04:54:55;;;;;;;38.67;20.40;;;;;;;;;;5074830;28;20028;-75
2021/03/03 04:57:21;;;;;;;39.75;20.58;;;;;;;;;;5074807;28;20012;-77
2021/03/03 04:59:47;;;;;;;42.08;22.63;;;;;;;;;;5073357;28;20024;-76
2021/03/03 05:02:13;;;;;;;38.22;20.67;;;;;;;;;;5074724;28;20052;-75
2021/03/03 05:04:39;;;;;;;37.58;20.45;;;;;;;;;;5074947;28;20020;-76
2021/03/03 05:07:05;;;;;;;42.42;23.65;;;;;;;;;;5074634;28;20099;-76
2021/03/03 05:09:31;;;;;;;39.10;20.70;;;;;;;;;;5072991;28;20032;-76
2021/03/03 05:11:58;;;;;;;41.10;22.95;;;;;;;;;;5074474;28;20369;-76
2021/03/03 05:14:24;;;;;;;43.15;22.65;;;;;;;;;;5074209;28;20016;-76
2021/03/03 05:16:50;;;;;;;41.42;21.75;;;;;;;;;;5074401;28;20142;-76
2021/03/03 05:19:16;;;;;;;41.75;22.15;;;;;;;;;;5074274;28;20372;-76
2021/03/03 05:21:42;;;;;;;46.30;21.23;;;;;;;;;;5074664;28;20107;-76
2021/03/03 05:24:08;;;;;;;42.78;22.15;;;;;;;;;;5074303;28;20102;-76
2021/03/03 05:26:34;;;;;;;47.25;23.40;;;;;;;;;;5072723;28;20403;-76
2021/03/03 05:29:00;;;;;;;50.20;22.95;;;;;;;;;;5072917;28;20050;-76
2021/03/03 05:31:26;;;;;;;42.67;21.98;;;;;;;;;;5074025;28;20016;-76
2021/03/03 05:33:52;;;;;;;38.25;22.42;;;;;;;;;;5072761;28;20356;-76
2021/03/03 05:36:18;;;;;;;43.58;22.83;;;;;;;;;;5072702;28;20492;-76
2021/03/03 05:38:44;;;;;;;42.42;22.65;;;;;;;;;;5074259;28;20095;-76
2021/03/03 05:41:10;;;;;;;40.92;22.13;;;;;;;;;;5072553;28;20527;-76
2021/03/03 05:43:38;;;;;;;45.00;23.00;;;;;;;;;;5072347;28;20059;-76
2021/03/03 05:46:04;;;;;;;47.60;23.50;;;;;;;;;;5072521;28;20457;-76
2021/03/03 05:48:38;;;;;;;45.42;23.33;;;;;;;;;;5073506;28;20122;-75
2021/03/03 05:51:05;;;;;;;47.95;22.75;;;;;;;;;;5072190;28;20044;-76
2021/03/03 05:53:32;;;;;;;41.40;21.33;;;;;;;;;;5072247;28;20013;-75
2021/03/03 05:55:59;;;;;;;41.17;21.88;;;;;;;;;;5072378;28;20044;-75
2021/03/03 05:58:27;;;;;;;49.10;24.45;;;;;;;;;;5071873;28;20020;-76
2021/03/03 06:00:55;;;;;;;39.85;23.33;;;;;;;;;;5072901;28;20063;-76
2021/03/03 06:03:23;;;;;;;48.50;22.67;;;;;;;;;;5072160;28;20346;-76
2021/03/03 06:05:49;;;;;;;42.85;22.10;;;;;;;;;;5071940;28;20480;-76
2021/03/03 06:08:15;;;;;;;47.80;23.35;;;;;;;;;;5072903;28;20020;-75
2021/03/03 06:10:42;;;;;;;37.35;22.05;;;;;;;;;;5071685;28;20047;-75
2021/03/03 06:13:08;;;;;;;39.53;23.65;;;;;;;;;;5071734;28;20453;-75
2021/03/03 06:15:34;;;;;;;41.60;23.92;;;;;;;;;;5071408;28;20017;-75
2021/03/03 06:18:00;;;;;;;42.42;22.73;;;;;;;;;;5071452;28;20020;-75
2021/03/03 06:20:26;;;;;;;45.55;24.42;;;;;;;;;;5072527;28;20138;-75
2021/03/03 06:22:52;;;;;;;49.45;25.02;;;;;;;;;;5072815;28;20044;-76
2021/03/03 06:25:23;;;;;;;39.50;22.38;;;;;;;;;;5072555;28;20016;-76
2021/03/03 06:27:49;;;;;;;45.47;23.33;;;;;;;;;;5072756;28;20024;-76
2021/03/03 06:30:16;;;;;;;47.72;23.38;;;;;;;;;;5071266;28;20225;-76
2021/03/03 06:32:51;;;;;;;41.95;23.63;;;;;;;;;;5071468;28;20074;-76
2021/03/03 06:35:17;;;;;;;41.80;22.35;;;;;;;;;;5072107;28;20365;-76
2021/03/03 06:37:53;;;;;;;50.58;26.42;;;;;;;;;;5072385;28;20424;-76
2021/03/03 06:40:20;;;;;;;41.78;22.63;;;;;;;;;;5072275;28;20021;-76
2021/03/03 06:42:46;;;;;;;48.50;24.00;;;;;;;;;;5072355;28;20035;-76
2021/03/03 06:45:25;;;;;;;40.53;23.52;;;;;;;;;;5071151;28;20009;-76
2021/03/03 06:47:51;;;;;;;45.90;24.02;;;;;;;;;;5071106;28;20115;-76
2021/03/03 06:50:17;;;;;;;49.33;25.17;;;;;;;;;;5072079;28;20030;-76
2021/03/03 06:52:43;;;;;;;44.17;23.77;;;;;;;;;;5070460;28;20165;-76
2021/03/03 06:55:10;;;;;;;47.13;24.25;;;;;;;;;;5070920;28;20024;-76
2021/03/03 06:57:36;;;;;;;41.20;24.70;;;;;;;;;;5072012;28;20028;-75
2021/03/03 07:00:04;;;;;;;45.75;25.40;;;;;;;;;;5070793;28;20028;-76
2021/03/03 07:02:34;;;;;;;49.15;25.08;;;;;;;;;;5070490;28;20036;-75
2021/03/03 07:05:02;;;;;;;48.08;23.58;;;;;;;;;;5070925;28;20024;-76
2021/03/03 07:07:28;;;;;;;43.60;23.95;;;;;;;;;;5071584;28;20028;-76
2021/03/03 07:09:59;;;;;;;40.25;23.42;;;;;;;;;;5072159;28;20063;-76
2021/03/03 07:12:30;;;;;;;40.75;22.58;;;;;;;;;;5070140;28;20024;-76
2021/03/03 07:15:02;;;;;;;44.58;24.45;;;;;;;;;;5070742;28;20445;-76
2021/03/03 07:17:38;;;;;;;39.13;23.23;;;;;;;;;;5070379;28;20103;-76
2021/03/03 07:20:16;;;;;;;45.30;24.90;;;;;;;;;;5072293;28;20028;-76
2021/03/03 07:22:47;;;;;;;41.35;23.83;;;;;;;;;;5070901;28;20020;-76
2021/03/03 07:25:13;;;;;;;;;;;;;;;;;;5070913;28;20056;-76
2021/03/03 07:27:40;;;;;;;39.53;22.65;;;;;;;;;;5071961;28;19927;-75
2021/03/03 07:30:06;;;;;;;46.50;24.65;;;;;;;;;;5070721;28;20039;-76
2021/03/03 07:32:32;;;;;;;37.42;24.13;;;;;;;;;;5071877;28;20017;-75
2021/03/03 07:34:59;;;;;;;40.80;23.83;;;;;;;;;;5070691;28;20016;-76
2021/03/03 07:37:26;;;;;;;43.03;24.63;;;;;;;;;;5071664;28;20099;-76
2021/03/03 07:39:55;;;;;;;43.35;24.27;;;;;;;;;;5070490;28;20525;-75
2021/03/03 07:42:24;;;;;;;43.92;23.90;;;;;;;;;;5070378;28;20027;-75
2021/03/03 07:44:50;;;;;;;40.13;22.77;;;;;;;;;;5050530;28;20353;-76
2021/03/03 07:47:17;;;;;;;45.35;26.02;;;;;;;;;;5070156;28;20021;-76
2021/03/03 07:49:45;;;;;;;46.60;25.17;;;;;;;;;;5053247;28;20027;-76
2021/03/03 07:52:12;;;;;;;41.45;23.73;;;;;;;;;;5053676;28;20385;-77
2021/03/03 07:54:38;;;;;;;45.00;25.60;;;;;;;;;;5053404;28;20012;-75
2021/03/03 07:57:07;;;;;;;41.08;22.95;;;;;;;;;;5053422;28;20020;-76
2021/03/03 07:59:33;;;;;;;41.75;23.80;;;;;;;;;;5053345;28;20050;-76
2021/03/03 08:01:59;;;;;;;52.53;25.38;;;;;;;;;;5071538;28;20055;-75
2021/03/03 08:04:39;;;;;;;42.70;24.05;;;;;;;;;;5053158;28;20048;-75
2021/03/03 08:07:15;;;;;;;40.42;23.98;;;;;;;;;;5071765;28;20025;-76
2021/03/03 08:09:41;;;;;;;46.10;25.70;;;;;;;;;;5053466;28;20077;-76
2021/03/03 08:12:07;;;;;;;43.80;26.70;;;;;;;;;;5071541;28;20021;-75
2021/03/03 08:14:37;;;;;;;44.30;25.27;;;;;;;;;;5052964;28;20346;-76
2021/03/03 08:17:08;;;;;;;56.60;26.65;;;;;;;;;;5052140;28;20025;-76
2021/03/03 08:19:55;;;;;;;45.17;26.42;;;;;;;;;;5033303;28;20057;-75
2021/03/03 08:22:41;;;;;;;59.13;26.52;;;;;;;;;;5051181;28;20024;-76
2021/03/03 08:25:09;;;;;;;48.08;24.65;;;;;;;;;;5050855;28;20024;-76
2021/03/03 08:27:36;;;;;;;40.00;22.67;;;;;;;;;;5054294;28;20017;-76
2021/03/03 08:30:09;;;;;;;45.83;27.38;;;;;;;;;;5037284;28;20021;-76
2021/03/03 08:32:35;;;;;;;52.63;27.83;;;;;;;;;;5036933;28;20028;-76
2021/03/03 08:35:03;;;;;;;48.63;27.23;;;;;;;;;;5054486;28;20020;-77
2021/03/03 08:37:30;;;;;;;42.70;26.63;;;;;;;;;;5036840;28;20619;-77
2021/03/03 08:39:56;;;;;;;46.40;25.63;;;;;;;;;;5036986;28;20025;-77
2021/03/03 08:42:29;;;;;;;62.28;19.52;;;;;;;;;;5054594;28;20158;-73
2021/03/03 08:45:04;;;;;;;40.00;15.20;;;;;;;;;;5036640;28;20021;-73
2021/03/03 08:47:46;;;;;;;34.63;16.83;;;;;;;;;;5054565;28;20468;-72
2021/03/03 08:50:38;;;;;;;27.42;14.50;;;;;;;;;;5053759;28;20127;-72
2021/03/03 08:53:21;;;;;;;40.97;18.58;;;;;;;;;;5032810;28;20037;-72
2021/03/03 08:55:47;;;;;;;39.00;22.25;;;;;;;;;;5036384;28;20361;-73
2021/03/03 08:58:39;;;;;;;40.60;22.08;;;;;;;;;;5036469;28;20361;-73
2021/03/03 09:01:05;;;;;;;30.13;16.70;;;;;;;;;;5016074;28;20076;-73
2021/03/03 09:03:31;;;;;;;29.77;17.95;;;;;;;;;;5054134;28;20056;-73
2021/03/03 09:05:58;;;;;;;34.33;20.83;;;;;;;;;;5053817;28;20035;-72
2021/03/03 09:08:25;;;;;;;37.13;20.95;;;;;;;;;;5063881;28;20095;-73
2021/03/03 09:10:52;;;;;;;28.92;16.88;;;;;;;;;;5056344;28;20024;-73
2021/03/03 09:13:26;;;;;;;27.63;16.42;;;;;;;;;;5073390;28;20025;-73
2021/03/03 09:16:21;;;;;;;34.63;18.77;;;;;;;;;;5055910;28;20112;-73
2021/03/03 09:19:01;;;;;;;31.40;20.45;;;;;;;;;;5043193;28;20029;-73
2021/03/03 09:21:29;;;;;;;31.33;20.47;;;;;;;;;;5072535;28;20024;-73
2021/03/03 09:24:06;;;;;;;37.03;20.75;;;;;;;;;;5073710;28;20270;-73
2021/03/03 09:26:32;;;;;;;40.30;19.05;;;;;;;;;;5073965;28;20349;-73
2021/03/03 09:28:58;;;;;;;33.13;19.98;;;;;;;;;;5073727;28;20454;-73
2021/03/03 09:31:43;;;;;;;33.90;20.13;;;;;;;;;;5072245;28;20028;-73
2021/03/03 09:34:09;;;;;;;34.13;19.55;;;;;;;;;;5072887;28;20017;-73
2021/03/03 09:36:35;;;;;;;31.27;18.67;;;;;;;;;;5073306;28;20020;-73
2021/03/03 09:39:01;;;;;;;32.28;19.17;;;;;;;;;;5054569;28;20028;-73
2021/03/03 09:41:28;;;;;;;30.02;19.23;;;;;;;;;;5073658;28;20674;-73
2021/03/03 09:44:00;;;;;;;36.13;21.23;;;;;;;;;;5073906;28;20074;-73
2021/03/03 09:46:26;;;;;;;34.42;23.33;;;;;;;;;;5073660;28;20024;-73
2021/03/03 09:48:52;;;;;;;28.90;19.63;;;;;;;;;;5055824;28;20334;-72
2021/03/03 09:51:18;;;;;;;34.88;22.90;;;;;;;;;;5070737;28;20051;-72
2021/03/03 09:53:54;;;;;;;33.80;21.75;;;;;;;;;;5056066;28;20456;-73
2021/03/03 09:56:27;;;;;;;40.38;22.85;;;;;;;;;;5073346;28;20032;-73
2021/03/03 09:58:54;;;;;;;35.63;22.08;;;;;;;;;;5073473;28;20016;-73
2021/03/03 10:01:20;;;;;;;37.35;21.67;;;;;;;;;;5055037;28;20029;-72
2021/03/03 10:03:46;;;;;;;27.08;19.65;;;;;;;;;;5055334;28;20449;-72
2021/03/03 10:06:12;;;;;;;26.77;18.73;;;;;;;;;;5055369;28;20460;-72
2021/03/03 10:08:39;;;;;;;29.67;20.25;;;;;;;;;;5054766;28;20031;-72
2021/03/03 10:11:05;;;;;;;32.25;20.38;;;;;;;;;;5073383;28;20070;-73
2021/03/03 10:13:31;;;;;;;34.38;21.35;;;;;;;;;;5072755;28;20368;-73
2021/03/03 10:15:57;;;;;;;31.35;19.92;;;;;;;;;;5073308;28;20043;-73
2021/03/03 10:18:23;;;;;;;32.42;20.65;;;;;;;;;;5072951;28;20066;-72
2021/03/03 10:20:53;;;;;;;27.50;19.65;;;;;;;;;;5071912;28;20028;-72
2021/03/03 10:23:20;;;;;;;28.75;20.10;;;;;;;;;;5073557;28;20024;-72
2021/03/03 10:25:47;;;;;;;29.75;19.63;;;;;;;;;;5073118;28;20017;-73
2021/03/03 10:28:17;;;;;;;29.98;19.73;;;;;;;;;;5072731;28;20017;-72
2021/03/03 10:30:50;;;;;;;36.17;24.25;;;;;;;;;;5073071;28;20452;-72
2021/03/03 10:33:33;;;;;;;28.77;18.73;;;;;;;;;;5072583;28;20364;-73
2021/03/03 10:36:00;;;;;;;26.88;18.50;;;;;;;;;;5071537;28;20103;-72
2021/03/03 10:38:26;;;;;;;33.33;21.42;;;;;;;;;;5072665;28;20035;-72
2021/03/03 10:40:54;;;;;;;34.22;20.73;;;;;;;;;;5071502;28;20024;-72
2021/03/03 10:43:21;;;;;;;45.75;29.58;;;;;;;;;;5071102;28;20020;-72
2021/03/03 10:45:49;;;;;;;50.13;31.80;;;;;;;;;;5071314;28;20101;-75
2021/03/03 10:48:26;;;;;;;42.47;28.40;;;;;;;;;;5071374;28;20353;-74
2021/03/03 10:50:52;;;;;;;51.05;33.42;;;;;;;;;;5070757;28;20027;-75
2021/03/03 10:53:18;;;;;;;50.10;35.72;;;;;;;;;;5071301;28;20020;-73
2021/03/03 10:55:44;;;;;;;52.20;36.25;;;;;;;;;;5072339;28;20051;-72
2021/03/03 10:58:19;;;;;;;54.65;36.05;;;;;;;;;;5071210;28;20112;-72
2021/03/03 11:00:53;;;;;;;52.70;35.90;;;;;;;;;;5071022;28;20028;-73
2021/03/03 11:03:19;;;;;;;53.97;36.28;;;;;;;;;;5072400;28;20020;-73
2021/03/03 11:05:51;;;;;;;44.63;30.08;;;;;;;;;;5070845;28;20024;-74
2021/03/03 11:08:18;;;;;;;48.28;33.35;;;;;;;;;;5070961;28;20477;-74
2021/03/03 11:10:44;;;;;;;51.88;33.88;;;;;;;;;;5070902;28;20036;-74
2021/03/03 11:13:10;;;;;;;53.30;35.13;;;;;;;;;;5071091;28;20023;-75
2021/03/03 11:15:36;;;;;;;60.13;35.78;;;;;;;;;;5070711;28;20027;-75
2021/03/03 11:18:02;;;;;;;52.42;35.20;;;;;;;;;;5070683;28;20103;-74
2021/03/03 11:20:28;;;;;;;61.63;39.53;;;;;;;;;;5071912;28;20020;-75
2021/03/03 11:22:54;;;;;;;61.03;41.03;;;;;;;;;;5067899;28;20415;-74
2021/03/03 11:25:20;;;;;;;59.38;38.55;;;;;;;;;;5069499;28;20048;-74
2021/03/03 11:27:46;;;;;;;47.45;34.03;;;;;;;;;;5053177;28;20115;-74
2021/03/03 11:30:12;;;;;;;47.50;32.75;;;;;;;;;;5071969;28;20120;-74
2021/03/03 11:32:38;;;;;;;44.67;31.20;;;;;;;;;;5071743;28;20027;-77
2021/03/03 11:35:04;;;;;;;51.17;34.53;;;;;;;;;;5053877;28;20021;-75
2021/03/03 11:37:30;;;;;;;54.08;36.45;;;;;;;;;;5070858;28;20024;-74
2021/03/03 11:39:56;;;;;;;57.47;41.20;;;;;;;;;;5053333;28;20036;-72
2021/03/03 11:42:22;;;;;;;62.78;41.97;;;;;;;;;;5072453;28;20032;-74
2021/03/03 11:44:48;;;;;;;58.22;40.92;;;;;;;;;;5072522;28;20027;-73
2021/03/03 11:47:14;;;;;;;58.17;38.30;;;;;;;;;;5071950;28;20048;-77
2021/03/03 11:49:40;;;;;;;60.45;40.90;;;;;;;;;;5053060;28;20111;-76
2021/03/03 11:52:06;;;;;;;59.15;42.03;;;;;;;;;;5071572;28;20060;-73
2021/03/03 11:54:32;;;;;;;64.22;44.25;;;;;;;;;;5052757;28;20151;-76
2021/03/03 11:56:58;;;;;;;56.20;37.40;;;;;;;;;;5053190;28;20460;-75
2021/03/03 11:59:24;;;;;;;49.15;31.63;;;;;;;;;;5052341;28;20506;-75
2021/03/03 12:01:52;;;;;;;59.70;39.55;;;;;;;;;;5073338;28;20028;-75
2021/03/03 12:04:18;;;;;;;59.30;39.78;;;;;;;;;;5075038;28;20024;-73
2021/03/03 12:06:44;;;;;;;60.88;39.67;;;;;;;;;;5075390;28;20440;-74
2021/03/03 12:09:11;;;;;;;39.38;26.60;;;;;;;;;;5075100;28;20024;-74
2021/03/03 12:11:37;;;;;;;66.57;41.35;;;;;;;;;;5057435;28;20028;-74
2021/03/03 12:14:03;;;;;;;65.35;45.92;;;;;;;;;;5075745;28;20453;-74
2021/03/03 12:16:29;;;;;;;66.60;44.55;;;;;;;;;;5057075;28;20547;-74
2021/03/03 12:18:55;;;;;;;63.63;46.03;;;;;;;;;;5075516;28;20012;-74
2021/03/03 12:21:21;;;;;;;76.68;52.78;;;;;;;;;;5075458;28;20369;-75
2021/03/03 12:23:47;;;;;;;67.28;45.85;;;;;;;;;;5075123;28;20020;-75
2021/03/03 12:26:13;;;;;;;64.40;44.05;;;;;;;;;;5075311;28;20019;-75
2021/03/03 12:28:40;;;;;;;62.90;42.85;;;;;;;;;;5073657;28;20369;-75
2021/03/03 12:31:06;;;;;;;60.25;41.53;;;;;;;;;;5071604;28;20462;-75
2021/03/03 12:33:32;;;;;;;75.80;52.42;;;;;;;;;;5072837;28;20427;-75
2021/03/03 12:35:58;;;;;;;68.28;45.47;;;;;;;;;;5074299;28;20027;-75
2021/03/03 12:38:24;;;;;;;63.70;45.25;;;;;;;;;;5056795;28;20016;-75
2021/03/03 12:40:50;;;;;;;75.45;53.45;;;;;;;;;;5056380;28;20073;-75
2021/03/03 12:43:16;;;;;;;69.55;47.90;;;;;;;;;;5074945;28;20100;-76
2021/03/03 12:45:42;;;;;;;75.55;53.63;;;;;;;;;;5074701;28;20099;-75
2021/03/03 12:48:08;;;;;;;61.10;43.65;;;;;;;;;;5074777;28;20407;-75
2021/03/03 12:50:34;;;;;;;67.05;47.70;;;;;;;;;;5056893;28;20045;-75
2021/03/03 12:53:00;;;;;;;78.00;53.33;;;;;;;;;;5056236;28;20083;-75
2021/03/03 12:55:26;;;;;;;64.88;46.22;;;;;;;;;;5056543;28;20013;-76
2021/03/03 12:57:52;;;;;;;72.45;51.38;;;;;;;;;;5074295;28;20031;-75
2021/03/03 13:00:18;;;;;;;61.00;42.80;;;;;;;;;;5074581;28;20024;-76
2021/03/03 13:02:48;;;;;;;74.60;53.63;;;;;;;;;;5074201;28;20460;-77
2021/03/03 13:05:14;;;;;;;68.80;49.20;;;;;;;;;;5052507;28;20046;-78
2021/03/03 13:07:40;;;;;;;60.35;41.83;;;;;;;;;;5055759;28;20104;-78
2021/03/03 13:10:07;;;;;;;68.40;47.28;;;;;;;;;;5074158;28;20024;-77
2021/03/03 13:12:33;;;;;;;55.35;39.25;;;;;;;;;;5055693;28;20031;-77
2021/03/03 13:14:59;;;;;;;71.47;51.17;;;;;;;;;;5074455;28;20017;-77
2021/03/03 13:17:25;;;;;;;63.92;43.45;;;;;;;;;;5056530;28;20009;-75
2021/03/03 13:19:51;;;;;;;77.25;54.13;;;;;;;;;;5075414;28;20023;-76
2021/03/03 13:22:17;;;;;;;74.05;52.17;;;;;;;;;;5074609;28;20023;-76
2021/03/03 13:24:43;;;;;;;73.40;49.22;;;;;;;;;;5075696;28;20024;-78
2021/03/03 13:27:09;;;;;;;77.35;51.38;;;;;;;;;;5074783;28;20020;-78
2021/03/03 13:29:37;;;;;;;59.15;39.55;;;;;;;;;;5073981;28;20020;-77
2021/03/03 13:32:09;;;;;;;59.70;44.17;;;;;;;;;;5074231;28;20023;-76
2021/03/03 13:34:35;;;;;;;68.90;48.00;;;;;;;;;;5074250;28;20051;-76
2021/03/03 13:37:01;;;;;;;55.28;39.92;;;;;;;;;;5074021;28;20055;-77
2021/03/03 13:39:27;;;;;;;59.45;42.20;;;;;;;;;;5072685;28;20047;-76
2021/03/03 13:41:53;;;;;;;60.78;42.83;;;;;;;;;;5073830;28;20090;-77
2021/03/03 13:44:19;;;;;;;51.35;34.55;;;;;;;;;;5073874;28;20019;-76
2021/03/03 13:46:45;;;;;;;74.07;49.65;;;;;;;;;;5072091;28;20461;-76
2021/03/03 13:49:11;;;;;;;74.68;55.08;;;;;;;;;;5072511;28;20021;-76
2021/03/03 13:51:37;;;;;;;71.32;50.72;;;;;;;;;;5071894;28;20044;-76
2021/03/03 13:54:03;;;;;;;70.57;47.28;;;;;;;;;;5073861;28;20024;-77
2021/03/03 13:56:29;;;;;;;51.40;33.65;;;;;;;;;;5073711;28;20099;-77
2021/03/03 13:58:55;;;;;;;58.92;41.42;;;;;;;;;;5072161;28;20020;-76
2021/03/03 14:01:21;;;;;;;67.10;48.03;;;;;;;;;;5072994;28;20033;-75
2021/03/03 14:03:48;;;;;;;74.38;51.60;;;;;;;;;;5072932;28;20442;-76
2021/03/03 14:06:14;;;;;;;59.63;43.25;;;;;;;;;;5073085;28;20021;-75
2021/03/03 14:08:40;;;;;;;76.85;51.35;;;;;;;;;;5072402;28;20377;-74
2021/03/03 14:11:06;;;;;;;66.00;44.22;;;;;;;;;;5072355;28;20020;-81
2021/03/03 14:13:33;;;;;;;74.07;51.92;;;;;;;;;;5054056;28;20092;-78
2021/03/03 14:15:59;;;;;;;64.53;45.38;;;;;;;;;;5053882;28;20082;-77
2021/03/03 14:18:25;;;;;;;74.95;52.20;;;;;;;;;;5055203;28;20020;-76
2021/03/03 14:20:51;;;;;;;81.15;55.45;;;;;;;;;;5054834;28;20025;-75